createdAt,value
2023-03-29T00:02:20.161Z,4.47
2023-03-29T00:04:47.439Z,5.63
2023-03-29T00:07:14.581Z,4.72
2023-03-29T00:09:42.477Z,3.78
2023-03-29T00:12:11.645Z,5.13
2023-03-29T00:14:38.635Z,3.10
2023-03-29T00:17:06.313Z,4.72
2023-03-29T00:19:35.756Z,5.75
2023-03-29T00:22:06.551Z,4.13
2023-03-29T00:24:33.595Z,5.25
2023-03-29T00:27:01.248Z,4.25
2023-03-29T00:29:28.308Z,3.88
2023-03-29T00:31:58.650Z,4.18
2023-03-29T00:34:31.281Z,3.95
2023-03-29T00:36:58.934Z,3.75
2023-03-29T00:39:28.179Z,5.85
2023-03-29T00:41:55.602Z,3.78
2023-03-29T00:45:03.860Z,3.78
2023-03-29T00:47:42.739Z,5.03
2023-03-29T00:50:25.964Z,3.67
2023-03-29T00:55:48.911Z,4.18
2023-03-29T00:58:23.933Z,4.93
2023-03-29T01:01:02.141Z,3.63
2023-03-29T01:03:38.012Z,2.20
2023-03-29T01:06:08.267Z,5.82
2023-03-29T01:08:47.864Z,5.78
2023-03-29T01:11:24.178Z,7.13
2023-03-29T01:14:19.057Z,3.92
2023-03-29T01:16:47.122Z,4.72
2023-03-29T01:19:21.444Z,5.55
2023-03-29T01:22:42.714Z,2.63
2023-03-29T01:25:53.597Z,4.18
2023-03-29T01:28:37.358Z,2.80
2023-03-29T01:31:13.495Z,4.13
2023-03-29T01:33:51.983Z,3.95
2023-03-29T01:36:27.345Z,4.53
2023-03-29T01:39:05.329Z,3.63
2023-03-29T01:42:02.672Z,4.82
2023-03-29T01:44:53.262Z,3.85
2023-03-29T01:47:56.422Z,4.10
2023-03-29T01:50:51.442Z,3.63
2023-03-29T01:53:43.404Z,3.97
2023-03-29T01:56:25.316Z,4.50
2023-03-29T01:59:04.396Z,7.75
2023-03-29T02:01:39.167Z,3.92
2023-03-29T02:04:13.377Z,4.10
2023-03-29T02:06:43.212Z,3.22
2023-03-29T02:09:10.577Z,2.80
2023-03-29T02:11:37.762Z,4.95
2023-03-29T02:14:05.624Z,7.13
2023-03-29T02:16:40.778Z,3.45
2023-03-29T02:19:10.138Z,5.40
2023-03-29T02:22:08.407Z,3.63
2023-03-29T02:24:37.688Z,4.00
2023-03-29T02:27:05.528Z,4.60
2023-03-29T02:29:32.637Z,3.90
2023-03-29T02:32:25.174Z,12.50
2023-03-29T02:35:06.967Z,3.42
2023-03-29T02:37:36.674Z,4.03
2023-03-29T02:40:08.038Z,4.97
2023-03-29T02:42:35.922Z,6.00
2023-03-29T02:45:05.151Z,2.83
2023-03-29T02:47:38.413Z,5.00
2023-03-29T02:50:07.616Z,6.10
2023-03-29T02:52:40.601Z,5.70
2023-03-29T02:55:15.470Z,4.43
2023-03-29T02:57:44.068Z,5.50
2023-03-29T03:00:14.877Z,4.10
2023-03-29T03:02:43.172Z,5.38
2023-03-29T03:05:10.329Z,4.43
2023-03-29T03:07:37.551Z,6.80
2023-03-29T03:10:05.034Z,7.28
2023-03-29T03:12:32.026Z,10.35
2023-03-29T03:14:59.285Z,6.18
2023-03-29T03:17:26.223Z,6.95
2023-03-29T03:19:53.291Z,6.68
2023-03-29T03:22:20.203Z,7.47
2023-03-29T03:24:47.376Z,8.85
2023-03-29T03:27:14.604Z,15.88
2023-03-29T03:29:41.621Z,12.68
2023-03-29T03:32:08.786Z,12.10
2023-03-29T03:34:35.984Z,5.78
2023-03-29T03:37:03.170Z,5.18
2023-03-29T03:39:30.797Z,7.57
2023-03-29T03:41:57.752Z,7.85
2023-03-29T03:44:24.691Z,7.75
2023-03-29T03:46:51.739Z,7.40
2023-03-29T03:49:19.340Z,5.63
2023-03-29T03:51:46.458Z,5.80
2023-03-29T03:54:13.481Z,4.10
2023-03-29T03:56:40.495Z,10.07
2023-03-29T03:59:07.526Z,21.80
2023-03-29T04:01:35.629Z,16.65
2023-03-29T04:04:05.892Z,9.18
2023-03-29T04:06:32.899Z,8.00
2023-03-29T04:09:00.280Z,8.90
2023-03-29T04:11:27.348Z,9.93
2023-03-29T04:13:54.267Z,10.38
2023-03-29T04:16:21.318Z,11.88
2023-03-29T04:18:48.547Z,8.63
2023-03-29T04:21:16.936Z,9.35
2023-03-29T04:23:46.561Z,11.40
2023-03-29T04:26:14.839Z,9.02
2023-03-29T04:28:42.597Z,12.40
2023-03-29T04:31:14.816Z,12.82
2023-03-29T04:33:41.892Z,16.80
2023-03-29T04:36:09.440Z,12.63
2023-03-29T04:38:36.474Z,11.70
2023-03-29T04:41:05.060Z,17.27
2023-03-29T04:43:31.977Z,10.68
2023-03-29T04:45:58.942Z,10.40
2023-03-29T04:48:26.771Z,13.18
2023-03-29T04:50:54.527Z,8.25
2023-03-29T04:53:22.368Z,11.52
2023-03-29T04:55:49.436Z,15.68
2023-03-29T04:58:18.200Z,13.48
2023-03-29T05:00:46.354Z,8.48
2023-03-29T05:03:14.710Z,12.75
2023-03-29T05:08:26.471Z,11.02
2023-03-29T05:10:53.352Z,9.60
2023-03-29T05:13:20.344Z,9.57
2023-03-29T05:15:47.994Z,12.57
2023-03-29T05:18:15.220Z,19.17
2023-03-29T05:20:42.569Z,16.55
2023-03-29T05:23:09.718Z,17.20
2023-03-29T05:25:37.202Z,10.52
2023-03-29T05:28:04.451Z,18.20
2023-03-29T05:30:31.764Z,12.85
2023-03-29T05:33:00.370Z,16.67
2023-03-29T05:35:29.518Z,14.82
2023-03-29T05:37:56.573Z,16.25
2023-03-29T05:40:26.258Z,18.00
2023-03-29T05:42:54.011Z,20.15
2023-03-29T05:45:21.015Z,22.05
2023-03-29T05:47:48.322Z,21.05
2023-03-29T05:50:15.385Z,21.75
2023-03-29T05:52:43.239Z,22.30
2023-03-29T05:55:10.719Z,18.02
2023-03-29T05:57:38.696Z,18.02
2023-03-29T06:00:22.040Z,18.77
2023-03-29T06:05:16.659Z,13.77
2023-03-29T06:07:43.764Z,14.07
2023-03-29T06:10:11.260Z,13.32
2023-03-29T06:12:38.168Z,13.88
2023-03-29T06:15:06.146Z,14.07
2023-03-29T06:17:34.172Z,14.73
2023-03-29T06:20:01.928Z,13.15
2023-03-29T06:22:29.079Z,12.43
2023-03-29T06:24:56.119Z,18.00
2023-03-29T06:27:24.005Z,21.23
2023-03-29T06:29:50.881Z,15.18
2023-03-29T06:32:17.895Z,21.90
2023-03-29T06:34:44.904Z,14.18
2023-03-29T06:37:15.335Z,16.23
2023-03-29T06:39:42.675Z,15.10
2023-03-29T06:42:20.063Z,16.70
2023-03-29T06:44:49.467Z,14.95
2023-03-29T06:47:20.197Z,13.13
2023-03-29T06:49:47.051Z,10.40
2023-03-29T06:52:14.310Z,9.15
2023-03-29T06:54:41.294Z,9.20
2023-03-29T06:57:08.628Z,6.45
2023-03-29T06:59:35.720Z,10.70
2023-03-29T07:02:03.099Z,7.88
2023-03-29T07:04:32.160Z,5.97
2023-03-29T07:07:02.043Z,7.88
2023-03-29T07:09:31.084Z,8.55
2023-03-29T07:11:59.132Z,5.10
2023-03-29T07:14:30.153Z,7.78
2023-03-29T07:16:58.583Z,10.85
2023-03-29T07:19:29.106Z,6.50
2023-03-29T07:21:57.097Z,8.45
2023-03-29T07:24:24.134Z,10.90
2023-03-29T07:27:03.118Z,9.95
2023-03-29T07:29:31.936Z,5.10
2023-03-29T07:31:59.123Z,9.52
2023-03-29T07:34:27.304Z,7.82
2023-03-29T07:36:55.068Z,6.22
2023-03-29T07:39:22.722Z,9.25
2023-03-29T07:41:49.589Z,8.82
2023-03-29T07:44:19.255Z,6.40
2023-03-29T07:46:46.625Z,6.22
2023-03-29T07:49:20.998Z,6.72
2023-03-29T07:51:49.486Z,7.95
2023-03-29T07:54:16.349Z,7.90
2023-03-29T07:56:43.360Z,7.93
2023-03-29T07:59:13.218Z,7.50
2023-03-29T08:01:43.283Z,6.93
2023-03-29T08:04:10.397Z,11.35
2023-03-29T08:06:37.476Z,8.48
2023-03-29T08:09:04.637Z,7.03
2023-03-29T08:11:31.928Z,5.88
2023-03-29T08:13:59.739Z,6.18
2023-03-29T08:16:27.006Z,8.02
2023-03-29T08:18:53.961Z,6.55
2023-03-29T08:21:21.073Z,5.68
2023-03-29T08:23:48.781Z,5.32
2023-03-29T08:26:16.144Z,4.30
2023-03-29T08:28:43.918Z,6.00
2023-03-29T08:31:11.859Z,6.50
2023-03-29T08:33:39.101Z,6.28
2023-03-29T08:36:06.728Z,4.97
2023-03-29T08:38:33.997Z,5.60
2023-03-29T08:41:01.763Z,6.20
2023-03-29T08:43:38.844Z,5.40
2023-03-29T08:46:34.490Z,8.73
2023-03-29T08:49:06.422Z,6.72
2023-03-29T08:51:44.469Z,5.07
2023-03-29T08:54:25.212Z,4.80
2023-03-29T08:56:57.674Z,5.50
2023-03-29T08:59:30.890Z,4.75
2023-03-29T09:02:00.944Z,6.50
2023-03-29T09:04:39.911Z,6.75
2023-03-29T09:07:11.615Z,6.00
2023-03-29T09:09:38.643Z,7.13
2023-03-29T09:12:24.076Z,7.22
2023-03-29T09:15:44.537Z,5.53
2023-03-29T09:18:25.553Z,6.32
2023-03-29T09:21:26.514Z,5.80
2023-03-29T09:24:10.261Z,4.38
2023-03-29T09:26:52.833Z,6.75
2023-03-29T09:30:04.914Z,6.07
2023-03-29T09:32:44.861Z,6.20
2023-03-29T09:35:22.986Z,5.95
2023-03-29T09:37:52.859Z,5.47
2023-03-29T09:40:39.543Z,5.47
2023-03-29T09:43:13.142Z,5.05
2023-03-29T09:45:41.362Z,7.88
2023-03-29T09:48:17.730Z,7.90
2023-03-29T09:50:47.792Z,6.45
2023-03-29T09:53:16.349Z,5.03
2023-03-29T09:55:47.707Z,5.47
2023-03-29T09:58:23.994Z,5.93
2023-03-29T10:00:51.328Z,5.25
2023-03-29T10:03:30.520Z,7.18
2023-03-29T10:06:00.501Z,4.57
2023-03-29T10:08:42.630Z,6.50
2023-03-29T10:11:29.481Z,5.35
2023-03-29T10:14:19.254Z,6.43
2023-03-29T10:16:47.677Z,5.95
2023-03-29T10:19:35.779Z,5.15
2023-03-29T10:22:16.690Z,7.07
2023-03-29T10:24:51.416Z,7.13
2023-03-29T10:27:29.920Z,5.70
2023-03-29T10:30:00.071Z,5.53
2023-03-29T10:32:39.640Z,5.13
2023-03-29T10:35:19.131Z,6.32
2023-03-29T10:37:52.163Z,9.35
2023-03-29T10:40:31.530Z,4.60
2023-03-29T10:43:14.750Z,4.95
2023-03-29T10:45:42.513Z,4.40
2023-03-29T10:48:14.897Z,4.55
2023-03-29T10:53:28.809Z,5.38
2023-03-29T10:56:28.005Z,6.20
2023-03-29T10:59:00.840Z,5.90
2023-03-29T11:01:39.697Z,5.45
2023-03-29T11:04:39.797Z,6.32
2023-03-29T11:07:34.742Z,5.55
2023-03-29T11:10:20.244Z,4.68
2023-03-29T11:12:58.336Z,5.05
2023-03-29T11:15:49.744Z,3.80
2023-03-29T11:19:11.971Z,7.07
2023-03-29T11:21:45.957Z,5.47
2023-03-29T11:24:16.391Z,5.30
2023-03-29T11:27:39.187Z,7.57
2023-03-29T11:30:19.524Z,4.47
2023-03-29T11:33:17.071Z,5.50
2023-03-29T11:35:56.591Z,5.60
2023-03-29T11:38:35.945Z,4.38
2023-03-29T11:41:20.890Z,5.65
2023-03-29T11:43:55.255Z,3.78
2023-03-29T11:46:34.081Z,5.38
2023-03-29T11:49:17.281Z,4.35
2023-03-29T11:52:05.064Z,7.43
2023-03-29T11:54:41.234Z,7.03
2023-03-29T11:58:04.666Z,5.80
2023-03-29T12:00:38.695Z,6.97
2023-03-29T12:03:40.154Z,4.75
2023-03-29T12:06:21.553Z,9.40
2023-03-29T12:09:16.908Z,5.53
2023-03-29T12:12:03.741Z,6.72
2023-03-29T12:15:17.390Z,9.02
2023-03-29T12:18:02.472Z,4.97
2023-03-29T12:20:39.074Z,8.20
2023-03-29T12:23:08.685Z,8.98
2023-03-29T12:26:20.252Z,5.47
2023-03-29T12:29:17.576Z,6.40
2023-03-29T12:31:47.741Z,7.72
2023-03-29T12:35:03.459Z,7.43
2023-03-29T12:37:43.142Z,5.35
2023-03-29T12:40:20.514Z,6.45
2023-03-29T12:42:52.362Z,7.78
2023-03-29T12:45:33.958Z,6.85
2023-03-29T12:48:01.395Z,5.65
2023-03-29T12:50:37.794Z,5.75
2023-03-29T12:53:43.174Z,4.85
2023-03-29T12:56:19.059Z,6.03
2023-03-29T12:58:53.697Z,4.38
2023-03-29T13:01:42.784Z,6.47
2023-03-29T13:04:19.071Z,4.45
2023-03-29T13:06:50.104Z,7.03
2023-03-29T13:09:50.126Z,6.60
2023-03-29T13:12:31.440Z,6.22
2023-03-29T13:17:50.248Z,6.60
2023-03-29T13:20:51.250Z,5.95
2023-03-29T13:23:42.374Z,5.85
2023-03-29T13:26:45.725Z,6.65
2023-03-29T13:29:27.729Z,6.18
2023-03-29T13:32:31.292Z,8.82
2023-03-29T13:35:03.326Z,5.60
2023-03-29T13:37:46.047Z,5.60
2023-03-29T13:40:40.461Z,5.63
2023-03-29T13:43:19.334Z,7.43
2023-03-29T13:45:57.979Z,8.77
2023-03-29T13:48:37.900Z,6.40
2023-03-29T13:51:18.897Z,6.57
2023-03-29T13:53:55.897Z,7.65
2023-03-29T13:56:37.458Z,5.25
2023-03-29T13:59:19.638Z,5.70
2023-03-29T14:01:58.634Z,3.03
2023-03-29T14:04:43.941Z,6.22
2023-03-29T14:07:14.694Z,3.85
2023-03-29T14:09:46.079Z,4.32
2023-03-29T14:12:15.239Z,5.95
2023-03-29T14:14:58.171Z,5.10
2023-03-29T14:17:26.744Z,5.78
2023-03-29T14:19:58.300Z,4.82
2023-03-29T14:22:33.169Z,5.78
2023-03-29T14:25:11.792Z,6.72
2023-03-29T14:27:38.742Z,7.00
2023-03-29T14:30:28.524Z,5.10
2023-03-29T14:32:56.894Z,5.70
2023-03-29T14:35:32.379Z,3.75
2023-03-29T14:38:00.659Z,6.65
2023-03-29T14:40:27.815Z,3.22
2023-03-29T14:42:55.612Z,5.47
2023-03-29T14:45:23.604Z,5.03
2023-03-29T14:47:51.714Z,5.53
2023-03-29T14:50:31.577Z,6.72
2023-03-29T14:53:00.425Z,11.13
2023-03-29T14:55:27.495Z,5.78
2023-03-29T14:57:56.644Z,7.25
2023-03-29T15:00:28.703Z,4.97
2023-03-29T15:03:01.914Z,5.30
2023-03-29T15:05:39.042Z,7.53
2023-03-29T15:08:11.668Z,4.15
2023-03-29T15:13:08.038Z,7.72
2023-03-29T15:15:38.362Z,4.97
2023-03-29T15:18:07.845Z,5.55
2023-03-29T15:20:38.704Z,5.20
2023-03-29T15:23:14.600Z,7.30
2023-03-29T15:26:06.720Z,4.97
2023-03-29T15:28:36.092Z,13.57
2023-03-29T15:31:12.166Z,11.15
2023-03-29T15:33:43.138Z,10.93
2023-03-29T15:36:14.020Z,8.82
2023-03-29T15:38:44.981Z,10.23
2023-03-29T15:41:14.416Z,7.60
2023-03-29T15:43:42.770Z,4.75
2023-03-29T15:46:13.488Z,5.13
2023-03-29T15:48:41.301Z,4.85
2023-03-29T15:51:12.858Z,7.95
2023-03-29T15:53:40.893Z,4.50
2023-03-29T15:56:13.564Z,5.43
2023-03-29T16:01:37.663Z,4.60
2023-03-29T16:04:30.561Z,4.63
2023-03-29T16:06:57.864Z,9.93
2023-03-29T16:09:25.808Z,5.78
2023-03-29T16:11:52.938Z,2.85
2023-03-29T16:14:33.867Z,8.98
2023-03-29T16:17:02.972Z,6.28
2023-03-29T16:19:31.979Z,7.10
2023-03-29T16:22:01.149Z,4.80
2023-03-29T16:24:31.873Z,6.03
2023-03-29T16:27:01.499Z,5.70
2023-03-29T16:29:28.752Z,5.35
2023-03-29T16:31:55.823Z,5.63
2023-03-29T16:34:23.639Z,6.10
2023-03-29T16:36:53.226Z,6.18
2023-03-29T16:39:20.434Z,3.50
2023-03-29T16:41:49.211Z,2.50
2023-03-29T16:44:22.961Z,5.43
2023-03-29T16:46:53.846Z,4.25
2023-03-29T16:49:21.695Z,6.32
2023-03-29T16:51:52.368Z,4.80
2023-03-29T16:54:19.505Z,4.35
2023-03-29T16:56:46.989Z,5.50
2023-03-29T16:59:14.436Z,4.22
2023-03-29T17:01:41.627Z,6.90
2023-03-29T17:04:09.505Z,5.28
2023-03-29T17:06:36.690Z,4.50
2023-03-29T17:09:05.152Z,6.13
2023-03-29T17:11:32.817Z,5.43
2023-03-29T17:14:00.379Z,4.05
2023-03-29T17:16:29.217Z,5.90
2023-03-29T17:19:00.416Z,4.05
2023-03-29T17:21:29.586Z,4.50
2023-03-29T17:23:56.570Z,7.80
2023-03-29T17:26:23.774Z,4.68
2023-03-29T17:28:51.052Z,4.05
2023-03-29T17:31:19.470Z,9.77
2023-03-29T17:33:47.571Z,4.68
2023-03-29T17:36:17.317Z,2.88
2023-03-29T17:38:48.877Z,4.05
2023-03-29T17:41:16.243Z,6.47
2023-03-29T17:43:43.276Z,6.10
2023-03-29T17:46:10.337Z,6.35
2023-03-29T17:48:37.564Z,6.30
2023-03-29T17:51:04.993Z,6.43
2023-03-29T17:53:32.178Z,4.20
2023-03-29T17:55:59.666Z,8.10
2023-03-29T17:58:26.757Z,6.20
2023-03-29T18:00:53.886Z,6.57
2023-03-29T18:03:21.899Z,5.72
2023-03-29T18:05:49.014Z,6.03
2023-03-29T18:08:16.979Z,5.13
2023-03-29T18:10:44.127Z,8.23
2023-03-29T18:13:15.154Z,7.80
2023-03-29T18:15:46.907Z,6.50
2023-03-29T18:18:13.789Z,5.20
2023-03-29T18:20:40.668Z,6.82
2023-03-29T18:23:07.557Z,5.13
2023-03-29T18:25:34.654Z,3.42
2023-03-29T18:28:01.841Z,4.22
2023-03-29T18:30:29.135Z,4.80
2023-03-29T18:32:56.143Z,6.15
2023-03-29T18:35:23.179Z,5.53
2023-03-29T18:37:50.072Z,6.47
2023-03-29T18:40:20.310Z,3.80
2023-03-29T18:42:47.514Z,6.53
2023-03-29T18:45:14.454Z,4.53
2023-03-29T18:47:41.735Z,4.28
2023-03-29T18:50:09.509Z,5.50
2023-03-29T18:52:36.707Z,5.93
2023-03-29T18:55:05.416Z,6.25
2023-03-29T18:57:32.423Z,4.40
2023-03-29T18:59:59.926Z,5.40
2023-03-29T19:02:27.281Z,3.60
2023-03-29T19:04:54.197Z,5.28
2023-03-29T19:07:22.573Z,4.88
2023-03-29T19:09:49.510Z,4.47
2023-03-29T19:12:16.360Z,6.57
2023-03-29T19:14:43.377Z,4.35
2023-03-29T19:17:10.266Z,6.75
2023-03-29T19:19:37.915Z,5.32
2023-03-29T19:22:04.978Z,6.13
2023-03-29T19:24:32.024Z,5.80
2023-03-29T19:26:59.035Z,6.53
2023-03-29T19:29:26.703Z,7.13
2023-03-29T19:31:54.798Z,3.78
2023-03-29T19:34:23.909Z,8.52
2023-03-29T19:36:53.473Z,5.65
2023-03-29T19:39:21.261Z,4.20
2023-03-29T19:41:48.354Z,5.80
2023-03-29T19:44:15.475Z,6.50
2023-03-29T19:46:42.515Z,4.47
2023-03-29T19:49:14.001Z,4.43
2023-03-29T19:51:44.588Z,9.55
2023-03-29T19:54:13.936Z,8.23
2023-03-29T19:56:42.978Z,5.78
2023-03-29T19:59:11.254Z,6.25
2023-03-29T20:01:40.672Z,12.88
2023-03-29T20:04:07.728Z,4.90
2023-03-29T20:06:35.405Z,4.55
2023-03-29T20:09:05.042Z,5.30
2023-03-29T20:11:32.175Z,8.32
2023-03-29T20:13:59.164Z,7.43
2023-03-29T20:16:26.989Z,15.45
2023-03-29T20:18:54.128Z,7.28
2023-03-29T20:21:21.150Z,5.18
2023-03-29T20:23:48.119Z,6.53
2023-03-29T20:26:15.446Z,8.68
2023-03-29T20:28:42.732Z,19.98
2023-03-29T20:31:11.075Z,7.93
2023-03-29T20:33:38.573Z,5.72
2023-03-29T20:36:06.850Z,6.05
2023-03-29T20:38:35.336Z,8.75
2023-03-29T20:41:04.521Z,8.25
2023-03-29T20:43:37.550Z,9.02
2023-03-29T20:46:06.430Z,10.02
2023-03-29T20:48:33.359Z,4.47
2023-03-29T20:51:03.182Z,5.60
2023-03-29T20:53:34.445Z,7.60
2023-03-29T20:56:01.434Z,9.60
2023-03-29T20:58:32.318Z,11.68
2023-03-29T21:00:59.216Z,6.75
2023-03-29T21:03:26.336Z,7.20
2023-03-29T21:05:58.283Z,7.03
2023-03-29T21:08:28.881Z,8.33
2023-03-29T21:10:56.391Z,7.47
2023-03-29T21:13:24.042Z,16.27
2023-03-29T21:15:51.363Z,9.20
2023-03-29T21:18:18.560Z,15.32
2023-03-29T21:20:45.788Z,8.93
2023-03-29T21:23:14.148Z,8.30
2023-03-29T21:25:41.305Z,8.10
2023-03-29T21:28:08.640Z,12.02
2023-03-29T21:30:35.808Z,8.60
2023-03-29T21:33:03.801Z,9.25
2023-03-29T21:35:33.478Z,7.57
2023-03-29T21:38:02.777Z,12.18
2023-03-29T21:40:31.396Z,9.23
2023-03-29T21:42:58.286Z,12.30
2023-03-29T21:45:25.387Z,7.13
2023-03-29T21:47:52.639Z,10.82
2023-03-29T21:50:19.743Z,8.18
2023-03-29T21:52:46.741Z,9.63
2023-03-29T21:55:13.640Z,6.95
2023-03-29T21:57:41.549Z,10.70
2023-03-29T22:00:11.553Z,9.25
2023-03-29T22:02:40.155Z,11.32
2023-03-29T22:05:07.933Z,13.25
2023-03-29T22:07:38.820Z,17.90
2023-03-29T22:10:09.476Z,9.32
2023-03-29T22:12:37.389Z,10.05
2023-03-29T22:15:06.856Z,9.73
2023-03-29T22:17:36.073Z,12.73
2023-03-29T22:20:13.865Z,11.13
2023-03-29T22:22:47.031Z,14.13
2023-03-29T22:25:14.332Z,11.85
2023-03-29T22:27:44.419Z,8.55
2023-03-29T22:30:12.733Z,8.80
2023-03-29T22:32:40.461Z,12.57
2023-03-29T22:35:08.483Z,12.50
2023-03-29T22:37:42.400Z,10.60
2023-03-29T22:40:11.481Z,10.07
2023-03-29T22:42:38.869Z,10.85
2023-03-29T22:45:07.486Z,12.77
2023-03-29T22:47:35.388Z,20.65
2023-03-29T22:50:02.466Z,10.43
2023-03-29T22:52:29.888Z,12.65
2023-03-29T22:54:56.896Z,11.35
2023-03-29T22:57:24.226Z,13.55
2023-03-29T22:59:51.272Z,17.08
2023-03-29T23:02:18.198Z,16.52
2023-03-29T23:04:45.776Z,9.43
2023-03-29T23:07:15.714Z,7.53
2023-03-29T23:09:42.675Z,12.07
2023-03-29T23:12:12.555Z,11.05
2023-03-29T23:14:42.703Z,11.43
2023-03-29T23:17:10.337Z,7.07
2023-03-29T23:19:38.074Z,12.77
2023-03-29T23:22:05.022Z,13.15
2023-03-29T23:24:32.744Z,10.93
2023-03-29T23:27:01.172Z,13.70
2023-03-29T23:29:28.339Z,12.43
2023-03-29T23:31:57.244Z,14.98
2023-03-29T23:34:24.631Z,8.98
2023-03-29T23:36:51.666Z,11.98
2023-03-29T23:39:18.594Z,9.13
2023-03-29T23:41:45.695Z,11.90
2023-03-29T23:44:12.952Z,13.68
2023-03-29T23:46:41.099Z,18.63
2023-03-29T23:49:10.048Z,13.98
2023-03-29T23:51:39.219Z,12.77
2023-03-29T23:54:06.275Z,9.07
2023-03-29T23:56:33.460Z,9.20
2023-03-29T23:59:01.484Z,11.55
